Time;durP1;ratioP1;P1;durP2;ratioP2;P2;SDS_P1;SDS_P2;PMS_P1;PMS_P2;Temp;Humidity;BMP_temperature;BMP_pressure;BME280_temperature;BME280_humidity;BME280_pressure;Samples;Min_cycle;Max_cycle;Signal;HPM_P1;HPM_P2
2024/02/25 00:00:33;;;;;;;36.22;21.90;;;;;;;;;;5075301;28;20033;-70
2024/02/25 00:02:59;;;;;;;34.10;20.85;;;;;;;;;;5073744;28;20032;-70
2024/02/25 00:05:24;;;;;;;30.23;20.15;;;;;;;;;;5073694;28;20040;-70
2024/02/25 00:07:49;;;;;;;31.63;18.83;;;;;;;;;;5075239;28;20025;-70
2024/02/25 00:10:15;;;;;;;31.77;18.67;;;;;;;;;;5073625;28;20127;-70
2024/02/25 00:12:40;;;;;;;33.17;20.10;;;;;;;;;;5074778;28;20021;-70
2024/02/25 00:15:06;;;;;;;32.50;19.20;;;;;;;;;;5075318;28;20044;-70
2024/02/25 00:17:31;;;;;;;36.05;20.20;;;;;;;;;;5074662;28;20060;-70
2024/02/25 00:19:57;;;;;;;34.90;20.80;;;;;;;;;;5074678;28;20043;-70
2024/02/25 00:22:24;;;;;;;32.40;19.92;;;;;;;;;;5074653;28;20028;-70
2024/02/25 00:24:49;;;;;;;30.38;19.42;;;;;;;;;;5074498;28;20043;-70
2024/02/25 00:27:16;;;;;;;36.13;20.42;;;;;;;;;;5103696;22;20047;-67
2024/02/25 00:29:41;;;;;;;36.70;19.88;;;;;;;;;;5095316;28;20026;-64
2024/02/25 00:32:07;;;;;;;35.20;19.98;;;;;;;;;;5093452;28;20020;-64
2024/02/25 00:34:33;;;;;;;43.22;21.15;;;;;;;;;;5093401;28;20040;-64
2024/02/25 00:36:58;;;;;;;48.88;22.48;;;;;;;;;;5095185;28;20108;-64
2024/02/25 00:39:24;;;;;;;52.28;23.20;;;;;;;;;;5094610;28;20036;-64
2024/02/25 00:41:52;;;;;;;61.50;25.88;;;;;;;;;;5094855;28;20042;-64
2024/02/25 00:44:18;;;;;;;54.17;24.13;;;;;;;;;;5093397;28;20039;-64
2024/02/25 00:46:43;;;;;;;51.97;24.35;;;;;;;;;;5094093;28;20032;-64
2024/02/25 00:49:09;;;;;;;46.28;23.50;;;;;;;;;;5093223;28;20028;-70
2024/02/25 00:51:34;;;;;;;42.42;20.95;;;;;;;;;;5094368;28;20062;-70
2024/02/25 00:53:59;;;;;;;35.33;19.00;;;;;;;;;;5094350;28;20028;-70
2024/02/25 00:56:25;;;;;;;34.90;17.95;;;;;;;;;;5093004;28;20494;-70
2024/02/25 00:58:50;;;;;;;38.13;19.02;;;;;;;;;;5094799;28;20077;-70
2024/02/25 01:01:15;;;;;;;33.42;18.90;;;;;;;;;;5094441;28;20109;-70
2024/02/25 01:03:42;;;;;;;33.75;18.17;;;;;;;;;;5094055;28;20020;-70
2024/02/25 01:06:07;;;;;;;30.27;18.13;;;;;;;;;;5094115;28;20434;-70
2024/02/25 01:08:38;;;;;;;27.38;16.45;;;;;;;;;;5094069;28;20024;-70
2024/02/25 01:11:04;;;;;;;25.75;15.77;;;;;;;;;;5094310;28;20024;-70
2024/02/25 01:13:30;;;;;;;28.25;15.68;;;;;;;;;;5094023;28;20024;-70
2024/02/25 01:15:55;;;;;;;23.05;13.73;;;;;;;;;;5094268;28;20100;-70
2024/02/25 01:18:20;;;;;;;20.73;13.88;;;;;;;;;;5093992;28;20028;-70
2024/02/25 01:20:46;;;;;;;19.95;12.70;;;;;;;;;;5094218;28;20082;-70
2024/02/25 01:23:11;;;;;;;19.20;13.43;;;;;;;;;;5094518;28;20032;-70
2024/02/25 01:25:37;;;;;;;19.92;12.18;;;;;;;;;;5092509;28;20153;-70
2024/02/25 01:28:02;;;;;;;20.48;13.30;;;;;;;;;;5093830;28;20043;-70
2024/02/25 01:30:27;;;;;;;20.38;12.98;;;;;;;;;;5094050;28;20024;-70
2024/02/25 01:32:53;;;;;;;21.38;13.15;;;;;;;;;;5094099;28;20024;-71
2024/02/25 01:35:18;;;;;;;18.17;12.35;;;;;;;;;;5094014;28;20450;-71
2024/02/25 01:37:44;;;;;;;23.02;13.07;;;;;;;;;;5094519;28;20522;-70
2024/02/25 01:40:09;;;;;;;20.70;13.07;;;;;;;;;;5094153;28;20097;-70
2024/02/25 01:42:36;;;;;;;20.85;12.80;;;;;;;;;;5093932;28;20030;-70
2024/02/25 01:45:01;;;;;;;18.38;12.32;;;;;;;;;;5092296;28;20437;-70
2024/02/25 01:47:28;;;;;;;22.23;12.63;;;;;;;;;;5093616;28;20069;-70
2024/02/25 01:49:54;;;;;;;19.02;12.63;;;;;;;;;;5092446;28;20028;-64
2024/02/25 01:52:20;;;;;;;18.95;11.68;;;;;;;;;;5093591;28;20084;-64
2024/02/25 01:54:46;;;;;;;15.73;10.32;;;;;;;;;;5092291;28;20617;-64
2024/02/25 01:57:12;;;;;;;15.32;10.55;;;;;;;;;;5095975;28;20157;-64
2024/02/25 01:59:38;;;;;;;15.73;10.73;;;;;;;;;;5097918;28;20107;-64
2024/02/25 02:02:03;;;;;;;14.48;10.38;;;;;;;;;;5098455;28;20353;-64
2024/02/25 02:04:29;;;;;;;14.38;10.05;;;;;;;;;;5096321;28;20035;-64
2024/02/25 02:06:55;;;;;;;11.90;9.20;;;;;;;;;;5098072;28;20028;-64
2024/02/25 02:09:20;;;;;;;12.82;9.57;;;;;;;;;;5096292;28;20024;-64
2024/02/25 02:11:56;;;;;;;14.52;9.13;;;;;;;;;;5097407;28;20030;-64
2024/02/25 02:14:22;;;;;;;13.93;9.35;;;;;;;;;;5097904;28;20028;-64
2024/02/25 02:16:47;;;;;;;12.23;9.38;;;;;;;;;;5096057;28;20016;-64
2024/02/25 02:19:13;;;;;;;12.75;8.50;;;;;;;;;;5097296;28;20032;-70
2024/02/25 02:21:38;;;;;;;12.05;9.02;;;;;;;;;;5097479;28;20032;-70
2024/02/25 02:24:04;;;;;;;13.18;8.75;;;;;;;;;;5097405;28;20071;-64
2024/02/25 02:26:29;;;;;;;12.23;8.48;;;;;;;;;;5097445;28;20050;-64
2024/02/25 02:28:55;;;;;;;12.70;8.48;;;;;;;;;;5096987;28;20486;-64
2024/02/25 02:31:21;;;;;;;10.52;8.07;;;;;;;;;;5095757;28;20031;-64
2024/02/25 02:33:46;;;;;;;11.85;8.32;;;;;;;;;;5097266;28;20024;-64
2024/02/25 02:36:11;;;;;;;12.75;9.15;;;;;;;;;;5097256;28;20024;-64
2024/02/25 02:38:37;;;;;;;11.00;8.48;;;;;;;;;;5096911;28;20035;-64
2024/02/25 02:41:03;;;;;;;11.85;8.63;;;;;;;;;;5096892;28;20036;-64
2024/02/25 02:43:28;;;;;;;11.77;8.32;;;;;;;;;;5096814;28;20169;-64
2024/02/25 02:45:55;;;;;;;12.18;8.43;;;;;;;;;;5096693;28;20040;-64
2024/02/25 02:48:20;;;;;;;11.20;8.48;;;;;;;;;;5096684;28;20035;-70
2024/02/25 02:50:46;;;;;;;11.45;8.65;;;;;;;;;;5096707;28;20020;-70
2024/02/25 02:53:11;;;;;;;11.45;8.52;;;;;;;;;;5096903;28;20085;-70
2024/02/25 02:55:37;;;;;;;13.73;8.68;;;;;;;;;;5096547;28;20032;-70
2024/02/25 02:58:02;;;;;;;12.15;8.93;;;;;;;;;;5095983;28;20099;-70
2024/02/25 03:00:28;;;;;;;13.35;8.82;;;;;;;;;;5095181;28;20126;-70
2024/02/25 03:02:53;;;;;;;12.82;9.15;;;;;;;;;;5096494;28;20034;-70
2024/02/25 03:05:19;;;;;;;14.25;9.63;;;;;;;;;;5094989;28;20032;-70
2024/02/25 03:07:49;;;;;;;11.57;9.15;;;;;;;;;;5095806;28;20060;-70
2024/02/25 03:10:16;;;;;;;11.98;8.98;;;;;;;;;;5096151;28;20020;-70
2024/02/25 03:12:41;;;;;;;12.45;9.48;;;;;;;;;;5095012;28;20540;-70
2024/02/25 03:15:07;;;;;;;13.70;9.25;;;;;;;;;;5096168;28;20119;-70
2024/02/25 03:17:32;;;;;;;13.25;10.02;;;;;;;;;;5094896;28;20040;-70
2024/02/25 03:19:57;;;;;;;18.23;10.13;;;;;;;;;;5096112;28;20031;-70
2024/02/25 03:22:23;;;;;;;14.82;9.85;;;;;;;;;;5096672;28;20089;-64
2024/02/25 03:24:48;;;;;;;17.42;11.32;;;;;;;;;;5095955;28;20028;-64
2024/02/25 03:27:14;;;;;;;18.75;11.70;;;;;;;;;;5077758;28;20032;-64
2024/02/25 03:29:42;;;;;;;17.77;11.52;;;;;;;;;;5096486;28;20020;-64
2024/02/25 03:32:08;;;;;;;20.23;12.32;;;;;;;;;;5077760;28;20032;-64
2024/02/25 03:34:33;;;;;;;22.90;11.90;;;;;;;;;;5096164;28;20054;-64
2024/02/25 03:36:59;;;;;;;19.40;11.57;;;;;;;;;;5095770;28;20460;-64
2024/02/25 03:39:24;;;;;;;18.52;11.57;;;;;;;;;;5094488;28;20032;-64
2024/02/25 03:41:49;;;;;;;17.65;11.55;;;;;;;;;;5095980;28;20050;-64
2024/02/25 03:44:15;;;;;;;19.73;11.43;;;;;;;;;;5095563;28;20457;-64
2024/02/25 03:46:43;;;;;;;18.52;11.20;;;;;;;;;;5095907;28;20439;-64
2024/02/25 03:49:09;;;;;;;16.60;11.35;;;;;;;;;;5094640;28;20020;-64
2024/02/25 03:51:40;;;;;;;18.08;12.05;;;;;;;;;;5095511;28;20039;-64
2024/02/25 03:54:06;;;;;;;19.75;12.93;;;;;;;;;;5095723;28;20036;-64
2024/02/25 03:56:31;;;;;;;22.20;13.20;;;;;;;;;;5095735;28;20031;-69
2024/02/25 03:58:57;;;;;;;19.95;13.15;;;;;;;;;;5094045;28;20058;-70
2024/02/25 04:01:25;;;;;;;20.75;13.55;;;;;;;;;;5095645;28;20493;-70
2024/02/25 04:03:50;;;;;;;18.58;13.07;;;;;;;;;;5095474;28;20048;-70
2024/02/25 04:06:16;;;;;;;19.58;13.63;;;;;;;;;;5095542;28;20059;-70
2024/02/25 04:08:41;;;;;;;18.40;13.68;;;;;;;;;;5095454;28;20028;-70
2024/02/25 04:11:07;;;;;;;18.27;13.40;;;;;;;;;;5095128;28;20111;-70
2024/02/25 04:13:32;;;;;;;18.20;13.13;;;;;;;;;;5095063;28;20028;-70
2024/02/25 04:15:57;;;;;;;19.00;13.60;;;;;;;;;;5095344;28;20045;-70
2024/02/25 04:18:23;;;;;;;18.35;13.43;;;;;;;;;;5095028;28;20459;-70
2024/02/25 04:20:48;;;;;;;18.95;13.50;;;;;;;;;;5094958;28;20090;-64
2024/02/25 04:23:16;;;;;;;18.88;13.80;;;;;;;;;;5094947;28;20063;-65
2024/02/25 04:25:42;;;;;;;19.98;13.38;;;;;;;;;;5095362;28;20032;-64
2024/02/25 04:28:07;;;;;;;20.35;13.63;;;;;;;;;;5076474;28;20043;-70
2024/02/25 04:30:33;;;;;;;19.23;14.50;;;;;;;;;;5093944;28;20040;-71
2024/02/25 04:32:58;;;;;;;21.15;13.15;;;;;;;;;;5094633;28;20028;-70
2024/02/25 04:35:24;;;;;;;21.08;14.05;;;;;;;;;;5095494;28;20020;-70
2024/02/25 04:37:50;;;;;;;21.67;13.95;;;;;;;;;;5093581;28;20032;-70
2024/02/25 04:40:15;;;;;;;18.42;13.30;;;;;;;;;;5093354;28;20055;-70
2024/02/25 04:42:40;;;;;;;18.60;13.48;;;;;;;;;;5094824;28;20431;-70
2024/02/25 04:45:08;;;;;;;15.57;11.82;;;;;;;;;;5093159;28;20032;-70
2024/02/25 04:47:34;;;;;;;17.15;12.25;;;;;;;;;;5094462;28;20039;-65
2024/02/25 04:49:59;;;;;;;18.13;13.15;;;;;;;;;;5093103;28;20024;-65
2024/02/25 04:52:24;;;;;;;17.90;12.85;;;;;;;;;;5094944;28;20039;-65
2024/02/25 04:54:50;;;;;;;17.75;12.70;;;;;;;;;;5094356;28;20056;-65
2024/02/25 04:57:15;;;;;;;20.50;13.90;;;;;;;;;;5094582;28;20042;-65
2024/02/25 04:59:41;;;;;;;20.50;13.55;;;;;;;;;;5094293;28;20032;-65
2024/02/25 05:02:07;;;;;;;19.30;13.50;;;;;;;;;;5094506;28;20099;-65
2024/02/25 05:04:35;;;;;;;16.20;12.25;;;;;;;;;;5094118;28;20027;-65
2024/02/25 05:07:00;;;;;;;18.40;13.35;;;;;;;;;;5094451;28;20047;-65
2024/02/25 05:09:27;;;;;;;21.17;14.50;;;;;;;;;;5094356;28;20515;-65
2024/02/25 05:11:52;;;;;;;19.30;14.70;;;;;;;;;;5094103;28;20376;-65
2024/02/25 05:14:18;;;;;;;21.48;15.05;;;;;;;;;;5094048;28;20020;-65
2024/02/25 05:16:44;;;;;;;24.02;16.77;;;;;;;;;;5094275;28;20169;-65
2024/02/25 05:19:25;;;;;;;21.50;15.57;;;;;;;;;;5098304;22;20032;-65
2024/02/25 05:21:53;;;;;;;23.25;15.60;;;;;;;;;;5032379;28;20045;-64
2024/02/25 05:24:18;;;;;;;22.83;15.60;;;;;;;;;;5033924;28;20025;-65
2024/02/25 05:26:44;;;;;;;24.02;15.82;;;;;;;;;;5016103;28;20381;-70
2024/02/25 05:29:09;;;;;;;23.63;16.25;;;;;;;;;;5033603;28;20111;-70
2024/02/25 05:31:35;;;;;;;20.67;15.02;;;;;;;;;;5032053;28;20034;-70
2024/02/25 05:34:00;;;;;;;20.83;15.07;;;;;;;;;;5033901;28;20034;-70
2024/02/25 05:36:26;;;;;;;21.45;14.68;;;;;;;;;;5033577;28;20017;-70
2024/02/25 05:38:51;;;;;;;20.00;14.75;;;;;;;;;;5032347;28;20033;-70
2024/02/25 05:41:17;;;;;;;24.65;15.57;;;;;;;;;;5032253;28;20033;-70
2024/02/25 05:43:44;;;;;;;17.23;13.18;;;;;;;;;;5033470;28;20072;-70
2024/02/25 05:46:10;;;;;;;20.60;13.90;;;;;;;;;;5032248;28;20033;-70
2024/02/25 05:48:35;;;;;;;20.45;14.55;;;;;;;;;;5034058;28;20035;-70
2024/02/25 05:51:01;;;;;;;19.63;14.30;;;;;;;;;;5032180;28;20026;-70
2024/02/25 05:53:26;;;;;;;19.88;13.65;;;;;;;;;;5033689;28;20025;-70
2024/02/25 05:55:51;;;;;;;21.83;14.13;;;;;;;;;;5032102;28;20041;-70
2024/02/25 05:58:17;;;;;;;21.33;14.20;;;;;;;;;;5032119;28;20032;-70
2024/02/25 06:00:42;;;;;;;18.40;13.25;;;;;;;;;;5033915;28;20038;-70
2024/02/25 06:03:08;;;;;;;17.63;12.88;;;;;;;;;;5033301;28;20025;-70
2024/02/25 06:05:33;;;;;;;20.35;13.90;;;;;;;;;;5033271;28;20500;-70
2024/02/25 06:08:00;;;;;;;19.17;13.27;;;;;;;;;;5033338;28;20021;-70
2024/02/25 06:10:26;;;;;;;18.27;13.07;;;;;;;;;;5033861;28;20029;-70
2024/02/25 06:12:52;;;;;;;17.17;12.48;;;;;;;;;;5033292;28;20025;-70
2024/02/25 06:15:18;;;;;;;18.23;11.52;;;;;;;;;;5016201;28;20132;-70
2024/02/25 06:17:44;;;;;;;16.60;12.02;;;;;;;;;;5033235;28;20037;-70
2024/02/25 06:20:10;;;;;;;16.23;10.93;;;;;;;;;;5031767;28;20444;-70
2024/02/25 06:22:36;;;;;;;16.38;11.65;;;;;;;;;;5015808;28;20033;-70
2024/02/25 06:25:05;;;;;;;19.02;12.63;;;;;;;;;;5033646;28;20014;-70
2024/02/25 06:27:35;;;;;;;20.25;13.48;;;;;;;;;;5032253;28;20057;-70
2024/02/25 06:30:04;;;;;;;21.50;13.85;;;;;;;;;;5079068;22;20435;-64
2024/02/25 06:32:31;;;;;;;20.65;12.75;;;;;;;;;;5073003;28;20025;-64
2024/02/25 06:34:57;;;;;;;22.08;13.55;;;;;;;;;;5073244;28;20031;-64
2024/02/25 06:37:22;;;;;;;18.10;11.95;;;;;;;;;;5073247;28;20037;-64
2024/02/25 06:39:48;;;;;;;16.90;11.23;;;;;;;;;;5072921;28;20029;-64
2024/02/25 06:42:14;;;;;;;15.65;11.07;;;;;;;;;;5072901;28;20107;-64
2024/02/25 06:44:42;;;;;;;11.93;9.65;;;;;;;;;;5074133;28;20028;-64
2024/02/25 06:47:07;;;;;;;15.38;11.40;;;;;;;;;;5077073;28;20380;-65
2024/02/25 06:49:32;;;;;;;19.65;12.75;;;;;;;;;;5058520;28;20032;-65
2024/02/25 06:51:58;;;;;;;20.80;13.50;;;;;;;;;;5076238;28;20017;-64
2024/02/25 06:54:23;;;;;;;16.55;10.23;;;;;;;;;;5075091;28;20391;-65
2024/02/25 06:56:49;;;;;;;15.90;10.50;;;;;;;;;;5077630;28;20028;-65
2024/02/25 06:59:14;;;;;;;13.65;9.95;;;;;;;;;;5076174;28;20093;-65
2024/02/25 07:01:40;;;;;;;12.38;9.13;;;;;;;;;;5075917;28;20026;-65
2024/02/25 07:04:05;;;;;;;11.30;8.40;;;;;;;;;;5074953;28;20036;-64
2024/02/25 07:06:31;;;;;;;13.40;9.68;;;;;;;;;;5074919;28;20009;-64
2024/02/25 07:08:56;;;;;;;18.58;13.02;;;;;;;;;;5076414;28;20028;-65
2024/02/25 07:11:23;;;;;;;10.95;8.45;;;;;;;;;;5076044;28;20021;-64
2024/02/25 07:13:49;;;;;;;10.13;8.15;;;;;;;;;;5076012;28;20115;-64
2024/02/25 07:16:14;;;;;;;10.23;7.82;;;;;;;;;;5075097;28;20068;-65
2024/02/25 07:18:40;;;;;;;10.60;8.27;;;;;;;;;;5075955;28;20047;-65
2024/02/25 07:21:11;;;;;;;13.80;10.02;;;;;;;;;;5076163;28;20024;-64
2024/02/25 07:23:41;;;;;;;;;;;;;;;;;;5075014;28;20115;-65
2024/02/25 07:26:07;;;;;;;28.88;18.40;;;;;;;;;;5076326;28;19916;-64
2024/02/25 07:28:33;;;;;;;22.92;16.98;;;;;;;;;;5074049;28;20033;-65
2024/02/25 07:31:01;;;;;;;11.60;8.48;;;;;;;;;;5075965;28;20043;-65
2024/02/25 07:33:27;;;;;;;15.98;9.43;;;;;;;;;;5075703;28;20020;-65
2024/02/25 07:35:52;;;;;;;16.13;10.55;;;;;;;;;;5075935;28;20024;-70
2024/02/25 07:38:17;;;;;;;12.88;9.88;;;;;;;;;;5076124;28;20028;-70
2024/02/25 07:40:43;;;;;;;14.35;9.45;;;;;;;;;;5075504;28;20085;-70
2024/02/25 07:43:08;;;;;;;12.73;8.73;;;;;;;;;;5075703;28;20067;-70
2024/02/25 07:45:33;;;;;;;13.93;8.00;;;;;;;;;;5075679;28;20058;-70
2024/02/25 07:47:59;;;;;;;10.35;7.90;;;;;;;;;;5112301;22;20441;-64
2024/02/25 07:50:25;;;;;;;10.90;7.18;;;;;;;;;;5074038;28;20119;-64
2024/02/25 07:52:50;;;;;;;9.80;6.80;;;;;;;;;;5075546;28;20012;-65
2024/02/25 07:55:17;;;;;;;13.23;7.40;;;;;;;;;;5074915;28;20036;-64
2024/02/25 07:58:06;;;;;;;6.60;5.90;;;;;;;;;;5091274;22;20407;-65
2024/02/25 08:00:33;;;;;;;7.38;5.30;;;;;;;;;;5033879;28;20555;-65
2024/02/25 08:02:59;;;;;;;4.97;4.10;;;;;;;;;;5050563;28;20469;-64
2024/02/25 08:05:25;;;;;;;3.78;3.25;;;;;;;;;;5035065;28;20032;-64
2024/02/25 08:07:52;;;;;;;3.88;3.15;;;;;;;;;;5050455;28;20048;-65
2024/02/25 08:10:18;;;;;;;3.40;3.10;;;;;;;;;;5035025;28;20045;-65
2024/02/25 08:12:45;;;;;;;4.53;3.30;;;;;;;;;;5050343;28;20038;-64
2024/02/25 08:15:11;;;;;;;3.67;3.05;;;;;;;;;;5035162;28;20037;-65
2024/02/25 08:17:37;;;;;;;3.47;2.70;;;;;;;;;;5034845;28;20071;-65
2024/02/25 08:20:02;;;;;;;4.00;2.60;;;;;;;;;;5050568;28;20159;-70
2024/02/25 08:22:28;;;;;;;3.90;2.72;;;;;;;;;;5034812;28;20116;-71
2024/02/25 08:24:53;;;;;;;2.65;2.28;;;;;;;;;;5034663;28;20064;-70
2024/02/25 08:27:19;;;;;;;2.75;2.05;;;;;;;;;;5071105;22;20080;-64
2024/02/25 08:29:45;;;;;;;5.25;2.30;;;;;;;;;;5056636;28;20032;-64
2024/02/25 08:32:10;;;;;;;2.95;1.92;;;;;;;;;;5074779;28;20024;-64
2024/02/25 08:34:36;;;;;;;2.10;1.80;;;;;;;;;;5074756;28;20052;-65
2024/02/25 08:37:01;;;;;;;2.63;2.00;;;;;;;;;;5076803;28;20028;-65
2024/02/25 08:39:27;;;;;;;2.88;1.77;;;;;;;;;;5076362;28;20024;-65
2024/02/25 08:41:52;;;;;;;4.70;1.77;;;;;;;;;;5057008;28;20052;-65
2024/02/25 08:44:17;;;;;;;2.95;1.70;;;;;;;;;;5074156;28;20468;-65
2024/02/25 08:46:43;;;;;;;2.22;1.90;;;;;;;;;;5074765;28;20040;-65
2024/02/25 08:49:08;;;;;;;2.13;1.70;;;;;;;;;;5056270;28;20020;-65
2024/02/25 08:51:34;;;;;;;1.98;1.77;;;;;;;;;;5074127;28;20406;-65
2024/02/25 08:54:00;;;;;;;2.17;1.88;;;;;;;;;;5074103;28;20046;-65
2024/02/25 08:56:26;;;;;;;1.90;1.80;;;;;;;;;;5074045;28;20037;-65
2024/02/25 08:58:51;;;;;;;2.90;1.77;;;;;;;;;;5074318;28;20032;-64
2024/02/25 09:01:16;;;;;;;2.25;1.70;;;;;;;;;;5073903;28;20503;-65
2024/02/25 09:03:43;;;;;;;3.17;2.03;;;;;;;;;;5073951;28;20063;-65
2024/02/25 09:06:08;;;;;;;3.28;1.88;;;;;;;;;;5073416;28;20063;-65
2024/02/25 09:08:34;;;;;;;2.00;1.80;;;;;;;;;;5074392;28;20048;-64
2024/02/25 09:11:00;;;;;;;2.75;1.63;;;;;;;;;;5074088;28;20063;-65
2024/02/25 09:13:25;;;;;;;2.13;1.60;;;;;;;;;;5074318;28;20020;-65
2024/02/25 09:15:51;;;;;;;1.80;1.65;;;;;;;;;;5055800;28;20044;-65
2024/02/25 09:18:18;;;;;;;1.75;1.48;;;;;;;;;;5055920;28;20491;-64
2024/02/25 09:20:43;;;;;;;2.05;1.27;;;;;;;;;;5073786;28;20391;-64
2024/02/25 09:23:09;;;;;;;2.67;1.58;;;;;;;;;;5073682;28;20111;-65
2024/02/25 09:25:35;;;;;;;1.77;1.20;;;;;;;;;;5073574;28;20113;-64
2024/02/25 09:28:02;;;;;;;1.67;1.20;;;;;;;;;;5073540;28;20036;-65
2024/02/25 09:30:27;;;;;;;1.02;0.93;;;;;;;;;;5073606;28;20035;-65
2024/02/25 09:32:54;;;;;;;2.60;1.65;;;;;;;;;;5073589;28;20032;-65
2024/02/25 09:35:19;;;;;;;1.58;1.35;;;;;;;;;;5038982;28;20078;-64
2024/02/25 09:37:46;;;;;;;2.40;1.52;;;;;;;;;;5056015;28;20053;-64
2024/02/25 09:40:11;;;;;;;2.50;1.45;;;;;;;;;;5073781;28;20503;-65
2024/02/25 09:42:40;;;;;;;1.38;1.20;;;;;;;;;;5055461;28;20086;-64
2024/02/25 09:45:06;;;;;;;1.52;1.13;;;;;;;;;;5073653;28;20056;-64
2024/02/25 09:47:31;;;;;;;2.00;1.20;;;;;;;;;;5073437;28;20075;-65
2024/02/25 09:49:57;;;;;;;1.90;1.13;;;;;;;;;;5073412;28;20059;-64
2024/02/25 09:52:24;;;;;;;2.90;1.40;;;;;;;;;;5055476;28;20356;-64
2024/02/25 09:54:50;;;;;;;1.58;1.40;;;;;;;;;;5073665;28;20444;-64
2024/02/25 09:57:15;;;;;;;1.63;1.10;;;;;;;;;;5055483;28;20119;-64
2024/02/25 09:59:41;;;;;;;0.93;0.93;;;;;;;;;;5074210;28;20024;-64
2024/02/25 10:02:08;;;;;;;2.17;1.23;;;;;;;;;;5055745;28;20472;-64
2024/02/25 10:04:35;;;;;;;1.75;1.25;;;;;;;;;;5065561;22;20024;-69
2024/02/25 10:07:01;;;;;;;2.70;1.77;;;;;;;;;;5082056;22;20048;-64
2024/02/25 10:09:30;;;;;;;1.50;1.40;;;;;;;;;;5073245;28;20499;-65
2024/02/25 10:11:56;;;;;;;1.88;1.58;;;;;;;;;;5071956;28;20017;-64
2024/02/25 10:14:22;;;;;;;2.05;1.63;;;;;;;;;;5073248;28;20035;-70
2024/02/25 10:17:03;;;;;;;1.40;1.30;;;;;;;;;;5071815;22;20110;-70
2024/02/25 10:19:29;;;;;;;1.50;1.40;;;;;;;;;;5059171;28;20036;-64
2024/02/25 10:22:14;;;;;;;1.20;1.10;;;;;;;;;;5077286;28;20028;-64
2024/02/25 10:24:40;;;;;;;3.58;1.20;;;;;;;;;;5076845;28;20427;-64
2024/02/25 10:27:07;;;;;;;2.47;1.35;;;;;;;;;;5059073;28;20028;-64
2024/02/25 10:29:33;;;;;;;2.28;1.85;;;;;;;;;;5077386;28;20039;-64
2024/02/25 10:32:00;;;;;;;2.72;2.30;;;;;;;;;;5058787;28;20507;-64
2024/02/25 10:34:25;;;;;;;2.75;2.00;;;;;;;;;;5059412;28;20020;-64
2024/02/25 10:36:50;;;;;;;2.53;2.05;;;;;;;;;;5078291;28;20540;-64
2024/02/25 10:39:16;;;;;;;2.17;1.98;;;;;;;;;;5078303;28;20094;-65
2024/02/25 10:41:43;;;;;;;2.13;1.92;;;;;;;;;;5076975;28;20021;-64
2024/02/25 10:44:11;;;;;;;1.80;1.50;;;;;;;;;;5058584;28;20032;-64
2024/02/25 10:46:40;;;;;;;2.05;1.80;;;;;;;;;;5058697;28;20092;-64
2024/02/25 10:49:06;;;;;;;2.10;1.90;;;;;;;;;;5076461;28;20032;-64
2024/02/25 10:51:34;;;;;;;1.80;1.52;;;;;;;;;;5076419;28;20024;-64
2024/02/25 10:54:00;;;;;;;1.33;1.23;;;;;;;;;;5076398;28;20020;-64
2024/02/25 10:56:27;;;;;;;2.88;1.80;;;;;;;;;;5076957;28;20067;-64
2024/02/25 10:58:52;;;;;;;2.08;1.70;;;;;;;;;;5058367;28;20040;-64
2024/02/25 11:01:19;;;;;;;2.05;1.60;;;;;;;;;;5058449;28;20476;-64
2024/02/25 11:03:45;;;;;;;2.85;1.60;;;;;;;;;;5076505;28;20021;-64
2024/02/25 11:06:30;;;;;;;1.92;1.83;;;;;;;;;;5059471;28;20039;-64
2024/02/25 11:09:14;;;;;;;2.50;1.83;;;;;;;;;;5076170;28;20056;-64
2024/02/25 11:11:40;;;;;;;2.42;1.77;;;;;;;;;;5076363;28;20016;-64
2024/02/25 11:14:06;;;;;;;2.78;1.75;;;;;;;;;;5076315;28;20499;-64
2024/02/25 11:16:36;;;;;;;2.47;1.85;;;;;;;;;;5076248;28;20017;-64
2024/02/25 11:19:03;;;;;;;2.63;2.10;;;;;;;;;;5075896;28;20162;-64
2024/02/25 11:21:33;;;;;;;2.05;1.48;;;;;;;;;;5058325;28;20486;-64
2024/02/25 11:23:59;;;;;;;2.42;1.98;;;;;;;;;;5057882;28;20016;-64
2024/02/25 11:26:33;;;;;;;2.67;1.80;;;;;;;;;;5057860;28;20158;-64
2024/02/25 11:29:17;;;;;;;2.45;2.20;;;;;;;;;;5073799;28;20040;-65
2024/02/25 11:32:00;;;;;;;2.97;2.72;;;;;;;;;;5075992;28;20033;-64
2024/02/25 11:34:26;;;;;;;3.38;2.75;;;;;;;;;;5057690;28;20025;-64
2024/02/25 11:36:52;;;;;;;2.22;1.85;;;;;;;;;;5058439;28;20020;-64
2024/02/25 11:39:20;;;;;;;2.40;2.10;;;;;;;;;;5072394;22;20071;-64
2024/02/25 11:41:47;;;;;;;9.45;4.10;;;;;;;;;;5075795;28;20025;-64
2024/02/25 11:44:13;;;;;;;3.38;2.25;;;;;;;;;;5057873;28;20039;-64
2024/02/25 11:46:38;;;;;;;7.65;3.70;;;;;;;;;;5075442;28;20023;-64
2024/02/25 11:49:04;;;;;;;2.28;1.90;;;;;;;;;;5075370;28;20391;-64
2024/02/25 11:51:30;;;;;;;3.13;2.05;;;;;;;;;;5057413;28;20025;-64
2024/02/25 11:53:56;;;;;;;1.90;1.73;;;;;;;;;;5075311;28;20502;-64
2024/02/25 11:56:21;;;;;;;2.30;1.98;;;;;;;;;;5057375;28;20052;-64
2024/02/25 11:58:47;;;;;;;2.72;2.10;;;;;;;;;;5075756;28;20047;-64
2024/02/25 12:01:14;;;;;;;2.92;2.20;;;;;;;;;;5075120;28;20051;-64
2024/02/25 12:03:39;;;;;;;2.67;2.05;;;;;;;;;;5075679;28;20037;-64
2024/02/25 12:06:04;;;;;;;3.45;2.03;;;;;;;;;;5057382;28;20046;-64
2024/02/25 12:08:30;;;;;;;3.40;2.03;;;;;;;;;;5075022;28;20028;-64
2024/02/25 12:10:57;;;;;;;2.17;1.98;;;;;;;;;;5075235;28;20063;-64
2024/02/25 12:13:23;;;;;;;2.35;2.00;;;;;;;;;;5057657;28;20028;-64
2024/02/25 12:15:48;;;;;;;2.63;1.83;;;;;;;;;;5074808;28;20361;-65
2024/02/25 12:18:14;;;;;;;2.00;1.77;;;;;;;;;;5057254;28;20037;-64
2024/02/25 12:20:40;;;;;;;2.03;1.77;;;;;;;;;;5075276;28;20174;-64
2024/02/25 12:23:09;;;;;;;2.92;2.08;;;;;;;;;;5095514;22;20139;-70
2024/02/25 12:25:34;;;;;;;2.42;2.05;;;;;;;;;;5073304;28;20048;-70
2024/02/25 12:28:17;;;;;;;2.38;1.88;;;;;;;;;;5074601;28;20111;-70
2024/02/25 12:30:44;;;;;;;4.15;2.13;;;;;;;;;;5073664;28;20078;-70
2024/02/25 12:33:25;;;;;;;3.83;1.92;;;;;;;;;;5094523;22;20061;-64
2024/02/25 12:35:52;;;;;;;2.92;1.75;;;;;;;;;;5105135;22;20059;-70
2024/02/25 12:38:18;;;;;;;3.08;2.47;;;;;;;;;;5115333;28;20046;-70
2024/02/25 12:40:46;;;;;;;4.15;2.10;;;;;;;;;;5114217;28;20467;-70
2024/02/25 12:43:14;;;;;;;2.33;2.05;;;;;;;;;;5115057;28;20114;-70
2024/02/25 12:45:40;;;;;;;2.92;2.15;;;;;;;;;;5097266;28;20360;-70
2024/02/25 12:48:06;;;;;;;2.03;1.83;;;;;;;;;;5114840;28;20031;-70
2024/02/25 12:50:31;;;;;;;2.38;2.17;;;;;;;;;;5097017;28;20115;-70
2024/02/25 12:52:56;;;;;;;2.60;2.30;;;;;;;;;;5115076;28;20469;-70
2024/02/25 12:55:22;;;;;;;3.97;3.30;;;;;;;;;;5114715;28;20039;-70
2024/02/25 12:57:48;;;;;;;2.40;2.20;;;;;;;;;;5114986;28;20411;-70
2024/02/25 13:00:14;;;;;;;2.30;2.10;;;;;;;;;;5114911;28;20383;-70
2024/02/25 13:02:39;;;;;;;4.25;3.58;;;;;;;;;;5114857;28;20038;-70
2024/02/25 13:05:05;;;;;;;2.80;2.20;;;;;;;;;;5114752;28;20028;-70
2024/02/25 13:07:30;;;;;;;2.78;2.58;;;;;;;;;;5115083;28;20401;-70
2024/02/25 13:09:56;;;;;;;7.25;4.07;;;;;;;;;;5097028;28;20035;-70
2024/02/25 13:12:21;;;;;;;2.00;1.80;;;;;;;;;;5114485;28;20077;-70
2024/02/25 13:14:47;;;;;;;2.17;1.92;;;;;;;;;;5115008;28;20054;-70
2024/02/25 13:17:13;;;;;;;3.40;2.83;;;;;;;;;;5114360;28;20486;-70
2024/02/25 13:19:38;;;;;;;4.07;2.95;;;;;;;;;;5114643;28;20039;-70
2024/02/25 13:22:04;;;;;;;1.80;1.15;;;;;;;;;;5114561;28;20037;-70
2024/02/25 13:24:29;;;;;;;6.88;5.22;;;;;;;;;;5114495;28;20034;-70
2024/02/25 13:26:55;;;;;;;2.22;2.03;;;;;;;;;;5114522;28;20405;-70
2024/02/25 13:29:20;;;;;;;6.72;4.15;;;;;;;;;;5114512;28;20024;-70
2024/02/25 13:31:46;;;;;;;3.88;2.70;;;;;;;;;;5114476;28;20035;-70
2024/02/25 13:34:11;;;;;;;1.73;1.63;;;;;;;;;;5114392;28;20030;-70
2024/02/25 13:36:37;;;;;;;2.58;2.10;;;;;;;;;;5113993;28;20039;-70
2024/02/25 13:39:03;;;;;;;3.40;2.30;;;;;;;;;;5114417;28;20102;-70
2024/02/25 13:41:30;;;;;;;4.22;2.30;;;;;;;;;;5114102;28;20120;-70
2024/02/25 13:43:56;;;;;;;1.40;1.30;;;;;;;;;;5114101;28;20085;-70
2024/02/25 13:46:21;;;;;;;4.50;2.97;;;;;;;;;;5095653;28;20502;-70
2024/02/25 13:48:49;;;;;;;3.05;2.80;;;;;;;;;;5114040;28;20030;-70
2024/02/25 13:51:15;;;;;;;3.38;3.08;;;;;;;;;;5114252;28;20031;-70
2024/02/25 13:53:40;;;;;;;5.15;3.38;;;;;;;;;;5117631;28;20027;-70
2024/02/25 13:56:06;;;;;;;1.88;1.73;;;;;;;;;;5118211;28;20035;-70
2024/02/25 13:58:32;;;;;;;8.68;4.40;;;;;;;;;;5118169;28;20422;-70
2024/02/25 14:00:57;;;;;;;7.75;3.22;;;;;;;;;;5118417;28;20020;-70
2024/02/25 14:03:23;;;;;;;1.60;1.50;;;;;;;;;;5118047;28;20038;-70
2024/02/25 14:05:48;;;;;;;1.63;1.52;;;;;;;;;;5118274;28;20027;-64
2024/02/25 14:08:14;;;;;;;1.73;1.63;;;;;;;;;;5117998;28;20065;-70
2024/02/25 14:10:41;;;;;;;7.13;3.47;;;;;;;;;;5099702;28;20043;-70
2024/02/25 14:13:06;;;;;;;2.08;1.88;;;;;;;;;;5118151;28;20137;-70
2024/02/25 14:15:32;;;;;;;3.65;2.58;;;;;;;;;;5118142;28;20081;-70
2024/02/25 14:17:57;;;;;;;2.25;1.95;;;;;;;;;;5118073;28;20028;-70
2024/02/25 14:20:23;;;;;;;2.78;2.53;;;;;;;;;;5099446;28;20023;-70
2024/02/25 14:22:49;;;;;;;4.15;2.25;;;;;;;;;;5117756;28;20031;-70
2024/02/25 14:25:15;;;;;;;2.30;2.10;;;;;;;;;;5117816;28;20031;-70